createdAt,value
2022-09-21T00:03:25.283Z,61.75
2022-09-21T00:08:32.571Z,61.71
2022-09-21T00:13:42.005Z,61.75
2022-09-21T00:18:45.365Z,61.71
2022-09-21T00:23:49.138Z,61.69
2022-09-21T00:28:54.579Z,61.60
2022-09-21T00:33:58.538Z,61.17
2022-09-21T00:39:02.434Z,61.36
2022-09-21T00:44:31.778Z,61.11
2022-09-21T00:49:36.276Z,60.94
2022-09-21T00:54:45.698Z,60.89
2022-09-21T00:59:52.406Z,61.04
2022-09-21T01:04:56.835Z,60.97
2022-09-21T01:10:06.824Z,60.99
2022-09-21T01:15:32.452Z,60.76
2022-09-21T01:21:06.800Z,61.12
2022-09-21T01:26:19.240Z,60.73
2022-09-21T01:31:25.887Z,61.16
2022-09-21T01:36:31.790Z,60.81
2022-09-21T01:41:36.706Z,60.76
2022-09-21T01:46:40.210Z,60.72
2022-09-21T01:51:50.543Z,60.78
2022-09-21T01:57:07.833Z,60.91
2022-09-21T02:02:18.653Z,60.65
2022-09-21T02:07:22.501Z,60.60
2022-09-21T02:12:25.815Z,60.55
2022-09-21T02:17:34.051Z,60.55
2022-09-21T02:22:51.660Z,60.40
2022-09-21T02:28:07.530Z,60.58
2022-09-21T02:33:23.321Z,60.39
2022-09-21T02:38:44.487Z,60.48
2022-09-21T02:43:56.187Z,60.56
2022-09-21T02:49:06.104Z,60.63
2022-09-21T02:54:14.226Z,60.57
2022-09-21T02:59:17.734Z,60.54
2022-09-21T03:04:20.914Z,60.47
2022-09-21T03:09:24.852Z,60.74
2022-09-21T03:14:28.424Z,60.71
2022-09-21T03:19:31.618Z,60.99
2022-09-21T03:24:35.594Z,61.08
2022-09-21T03:29:39.071Z,61.17
2022-09-21T03:34:42.743Z,61.30
2022-09-21T03:39:46.120Z,61.06
2022-09-21T03:44:49.394Z,61.13
2022-09-21T03:49:52.807Z,61.26
2022-09-21T03:54:56.678Z,61.36
2022-09-21T04:00:00.834Z,61.28
2022-09-21T04:05:13.343Z,61.14
2022-09-21T04:10:19.713Z,61.12
2022-09-21T04:15:23.485Z,60.77
2022-09-21T04:20:27.400Z,60.51
2022-09-21T04:25:31.428Z,60.42
2022-09-21T04:30:37.733Z,60.32
2022-09-21T04:35:41.235Z,60.48
2022-09-21T04:40:44.493Z,59.55
2022-09-21T04:45:47.905Z,58.85
2022-09-21T04:50:51.537Z,58.96
2022-09-21T04:55:56.175Z,57.89
2022-09-21T05:01:00.620Z,55.00
2022-09-21T05:06:04.885Z,51.20
2022-09-21T05:11:11.648Z,49.53
2022-09-21T05:16:19.386Z,50.13
2022-09-21T05:21:23.387Z,50.82
2022-09-21T05:26:26.796Z,51.96
2022-09-21T05:31:38.900Z,52.89
2022-09-21T05:36:50.422Z,52.96
2022-09-21T05:41:53.981Z,53.40
2022-09-21T05:48:02.518Z,53.57
2022-09-21T05:53:30.015Z,53.76
2022-09-21T05:58:33.051Z,54.33
2022-09-21T06:03:37.091Z,57.02
2022-09-21T06:08:42.389Z,59.00
2022-09-21T06:13:49.711Z,59.54
2022-09-21T06:18:53.459Z,59.85
2022-09-21T06:23:56.703Z,59.82
2022-09-21T06:29:00.228Z,59.40
2022-09-21T06:34:04.052Z,59.19
2022-09-21T06:39:07.534Z,58.54
2022-09-21T06:44:11.376Z,58.46
2022-09-21T06:49:15.092Z,57.89
2022-09-21T06:54:18.442Z,57.99
2022-09-21T06:59:21.697Z,57.60
2022-09-21T07:04:25.330Z,57.63
2022-09-21T07:14:52.679Z,55.91
2022-09-21T07:19:56.386Z,55.70
2022-09-21T07:25:00.200Z,55.05
2022-09-21T07:30:04.449Z,54.55
2022-09-21T07:35:07.936Z,54.27
2022-09-21T07:40:11.502Z,53.85
2022-09-21T07:45:15.205Z,54.10
2022-09-21T07:50:18.611Z,53.79
2022-09-21T07:55:22.225Z,53.52
2022-09-21T08:00:28.831Z,52.91
2022-09-21T08:05:34.697Z,52.44
2022-09-21T08:10:38.467Z,51.49
2022-09-21T08:15:49.817Z,51.21
2022-09-21T08:20:55.771Z,50.95
2022-09-21T08:26:00.979Z,51.25
2022-09-21T08:31:07.388Z,51.36
2022-09-21T08:36:12.074Z,51.27
2022-09-21T08:41:23.903Z,51.42
2022-09-21T08:46:31.035Z,51.20
2022-09-21T08:51:38.686Z,51.16
2022-09-21T08:57:03.992Z,51.50
2022-09-21T09:02:24.156Z,52.01
2022-09-21T09:07:50.315Z,52.02
2022-09-21T09:13:14.880Z,51.84
2022-09-21T09:18:29.490Z,51.52
2022-09-21T09:23:46.983Z,51.45
2022-09-21T09:29:03.051Z,51.68
2022-09-21T09:34:34.419Z,51.82
2022-09-21T09:39:38.902Z,51.51
2022-09-21T09:44:57.187Z,51.66
2022-09-21T09:50:06.464Z,51.49
2022-09-21T09:55:23.910Z,51.36
2022-09-21T10:00:28.092Z,51.14
2022-09-21T10:05:37.639Z,51.14
2022-09-21T10:10:43.927Z,51.03
2022-09-21T10:15:57.146Z,51.38
2022-09-21T10:21:28.706Z,51.35
2022-09-21T10:26:44.532Z,51.13
2022-09-21T10:32:03.359Z,51.11
2022-09-21T10:37:29.479Z,51.26
2022-09-21T10:42:42.198Z,51.32
2022-09-21T10:47:58.169Z,51.11
2022-09-21T10:53:32.389Z,51.41
2022-09-21T10:58:36.511Z,51.12
2022-09-21T11:03:58.197Z,51.27
2022-09-21T11:09:08.905Z,51.32
2022-09-21T11:14:50.211Z,51.33
2022-09-21T11:20:21.750Z,51.20
2022-09-21T11:25:36.567Z,51.27
2022-09-21T11:31:07.444Z,51.06
2022-09-21T11:36:34.115Z,50.80
2022-09-21T11:41:41.534Z,51.25
2022-09-21T11:46:59.387Z,50.94
2022-09-21T11:52:21.321Z,50.71
2022-09-21T11:57:35.302Z,50.83
2022-09-21T12:03:26.024Z,50.80
2022-09-21T12:09:03.347Z,50.93
2022-09-21T12:14:43.898Z,51.01
2022-09-21T12:20:00.370Z,51.42
2022-09-21T12:25:26.357Z,51.46
2022-09-21T12:30:32.284Z,51.90
2022-09-21T12:35:43.326Z,51.54
2022-09-21T12:41:18.236Z,51.83
2022-09-21T12:46:26.363Z,51.81
2022-09-21T12:51:41.960Z,52.05
2022-09-21T12:56:54.014Z,52.00
2022-09-21T13:02:15.265Z,52.12
2022-09-21T13:07:36.919Z,52.45
2022-09-21T13:12:44.755Z,52.60
2022-09-21T13:17:59.768Z,52.35
2022-09-21T13:23:05.025Z,52.58
2022-09-21T13:28:17.197Z,52.25
2022-09-21T13:33:20.555Z,52.31
2022-09-21T13:38:54.634Z,52.92
2022-09-21T13:44:01.066Z,53.10
2022-09-21T13:49:11.029Z,53.04
2022-09-21T13:54:14.826Z,53.10
2022-09-21T13:59:25.873Z,52.88
2022-09-21T14:04:33.735Z,52.95
2022-09-21T14:09:51.088Z,53.12
2022-09-21T14:15:18.909Z,53.22
2022-09-21T14:20:33.604Z,53.53
2022-09-21T14:25:52.098Z,53.60
2022-09-21T14:31:01.533Z,53.33
2022-09-21T14:36:09.851Z,53.57
2022-09-21T14:41:17.897Z,53.56
2022-09-21T14:46:45.940Z,53.69
2022-09-21T14:52:12.557Z,53.89
2022-09-21T14:57:42.686Z,53.85
2022-09-21T15:02:47.590Z,54.47
2022-09-21T15:08:29.456Z,54.29
2022-09-21T15:13:48.281Z,54.79
2022-09-21T15:19:02.314Z,54.60
2022-09-21T15:24:21.231Z,55.00
2022-09-21T15:29:30.991Z,55.42
2022-09-21T15:34:34.765Z,55.16
2022-09-21T15:39:38.099Z,55.90
2022-09-21T15:44:41.421Z,56.10
2022-09-21T15:49:44.724Z,55.66
2022-09-21T15:55:26.320Z,55.30
2022-09-21T16:00:31.587Z,55.77
2022-09-21T16:05:53.973Z,55.44
2022-09-21T16:11:26.960Z,55.07
2022-09-21T16:16:30.370Z,55.42
2022-09-21T16:21:37.369Z,55.59
2022-09-21T16:26:56.783Z,55.99
2022-09-21T16:32:18.269Z,55.80
2022-09-21T16:37:27.445Z,56.29
2022-09-21T16:42:30.881Z,56.66
2022-09-21T16:47:38.022Z,56.38
2022-09-21T16:52:41.732Z,56.68
2022-09-21T16:57:45.617Z,56.86
2022-09-21T17:02:49.617Z,56.82
2022-09-21T17:07:55.629Z,56.76
2022-09-21T17:12:58.987Z,56.79
2022-09-21T17:18:03.538Z,56.73
2022-09-21T17:23:06.671Z,57.03
2022-09-21T17:28:15.464Z,57.45
2022-09-21T17:33:18.886Z,56.99
2022-09-21T17:38:22.062Z,57.33
2022-09-21T17:43:40.058Z,57.79
2022-09-21T17:48:43.487Z,57.70
2022-09-21T17:53:47.500Z,57.59
2022-09-21T17:59:03.717Z,57.54
2022-09-21T18:04:08.510Z,58.13
2022-09-21T18:09:12.147Z,58.06
2022-09-21T18:14:24.576Z,57.65
2022-09-21T18:19:30.522Z,58.05
2022-09-21T18:24:34.147Z,57.73
2022-09-21T18:29:40.468Z,57.89
2022-09-21T18:34:47.458Z,58.16
2022-09-21T18:40:32.922Z,58.34
2022-09-21T18:45:44.160Z,58.31
2022-09-21T18:51:10.841Z,57.86
2022-09-21T18:56:15.612Z,57.96
2022-09-21T19:01:19.813Z,57.97
2022-09-21T19:06:32.459Z,57.78
2022-09-21T19:11:57.119Z,57.71
2022-09-21T19:17:16.699Z,57.99
2022-09-21T19:22:53.480Z,57.79
2022-09-21T19:28:10.700Z,58.22
2022-09-21T19:33:55.918Z,58.38
2022-09-21T19:38:59.437Z,58.44
2022-09-21T19:44:35.183Z,58.29
2022-09-21T19:49:53.023Z,58.31
2022-09-21T19:54:57.027Z,58.71
2022-09-21T20:00:01.041Z,58.70
2022-09-21T20:05:15.215Z,58.85
2022-09-21T20:10:21.496Z,58.67
2022-09-21T20:15:34.143Z,58.92
2022-09-21T20:20:37.575Z,59.09
2022-09-21T20:25:56.370Z,58.88
2022-09-21T20:31:00.163Z,58.79
2022-09-21T20:36:03.469Z,58.93
2022-09-21T20:41:16.701Z,58.85
2022-09-21T20:46:24.302Z,58.92
2022-09-21T20:51:27.883Z,58.83
2022-09-21T20:56:31.667Z,58.69
2022-09-21T21:01:35.211Z,59.04
2022-09-21T21:06:39.159Z,59.01
2022-09-21T21:11:43.072Z,59.27
2022-09-21T21:16:47.253Z,59.25
2022-09-21T21:21:50.814Z,59.35
2022-09-21T21:27:03.086Z,59.58
2022-09-21T21:32:07.028Z,59.49
2022-09-21T21:37:11.760Z,59.38
2022-09-21T21:42:17.609Z,59.29
2022-09-21T21:47:38.768Z,59.55
2022-09-21T21:52:42.826Z,59.58
2022-09-21T21:57:46.246Z,59.51
2022-09-21T22:02:49.673Z,59.81
2022-09-21T22:07:52.695Z,59.54
2022-09-21T22:12:56.074Z,59.49
2022-09-21T22:17:59.513Z,59.39
2022-09-21T22:23:02.689Z,59.61
2022-09-21T22:28:06.890Z,59.22
2022-09-21T22:33:10.304Z,59.21
2022-09-21T22:38:14.250Z,59.18
2022-09-21T22:43:17.890Z,59.32
2022-09-21T22:48:23.483Z,59.46
2022-09-21T22:53:29.857Z,59.25
2022-09-21T22:58:35.444Z,59.07
2022-09-21T23:03:40.841Z,59.18
2022-09-21T23:08:48.603Z,59.01
2022-09-21T23:13:52.354Z,59.01
2022-09-21T23:18:58.319Z,58.74
2022-09-21T23:24:04.091Z,58.40
2022-09-21T23:29:12.126Z,58.63
2022-09-21T23:34:19.123Z,58.76
2022-09-21T23:39:22.641Z,58.90
2022-09-21T23:44:26.238Z,58.84
2022-09-21T23:49:29.394Z,59.07
2022-09-21T23:54:32.787Z,59.11
2022-09-21T23:59:36.071Z,59.01
